KOLE/OLE METAR and TAF weather

Enter ICAO airport designator
Station Type Date Time Source
KOLE METAR 2021/10/17 04:01 UTC NOAA

KOLE 170401Z 00000KT 10SM SCT018 BKN055 OVC065 07/07 A2986


Station Type Date Time Source
KOLE Decoded METAR 2021/10/17 04:01 UTC NOAA

Olean Municipal, NY, United States (KOLE) 42-14N 078-22W
Oct 17, 2021 - 12:01 AM EDT / 2021.10.17 0401 UTC
Wind: Calm:0
Visibility: 10 mile(s):0
Sky conditions: overcast
Temperature: 44 F (7 C)
Dew Point: 44 F (7 C)
Relative Humidity: 100%
Pressure (altimeter): 29.86 in. Hg (1011 hPa)
ob: KOLE 170401Z 00000KT 10SM SCT018 BKN055 OVC065 07/07 A2986
cycle: 4

Station Type Date Time Source
KOLE TAF UTC NOAA

Error!

Example: see airport list